Time;durP1;ratioP1;P1;durP2;ratioP2;P2;SDS_P1;SDS_P2;PMS_P1;PMS_P2;Temp;Humidity;BMP_temperature;BMP_pressure;BME280_temperature;BME280_humidity;BME280_pressure;Samples;Min_cycle;Max_cycle;Signal;HPM_P1;HPM_P2
2022/11/18 00:01:11;;;;;;;21.98;18.65;;;7.80;99.90;;;;;;5063816;28;20057;-67
2022/11/18 00:03:38;;;;;;;24.55;18.92;;;7.70;99.90;;;;;;5046109;28;20052;-67
2022/11/18 00:06:06;;;;;;;23.30;19.40;;;7.70;99.90;;;;;;5046735;28;20405;-68
2022/11/18 00:08:32;;;;;;;27.92;19.50;;;7.70;99.90;;;;;;5045800;28;20049;-68
2022/11/18 00:10:58;;;;;;;25.10;19.45;;;7.70;99.90;;;;;;5026442;28;20037;-68
2022/11/18 00:16:10;;;;;;;25.80;20.17;;;7.70;99.90;;;;;;5062805;28;20073;-67
2022/11/18 00:18:36;;;;;;;25.83;20.25;;;7.70;99.90;;;;;;5057386;28;20038;-67
2022/11/18 00:21:10;;;;;;;25.80;20.40;;;7.70;99.90;;;;;;5046324;28;20049;-67
2022/11/18 00:23:37;;;;;;;28.20;19.88;;;7.70;99.90;;;;;;5064035;28;20041;-68
2022/11/18 00:26:13;;;;;;;26.85;19.90;;;7.70;99.90;;;;;;5064407;28;20044;-67
2022/11/18 00:28:40;;;;;;;27.45;20.20;;;7.70;99.90;;;;;;5049214;28;20037;-67
2022/11/18 00:31:11;;;;;;;28.05;21.10;;;7.80;99.90;;;;;;5049528;28;20072;-68
2022/11/18 00:33:37;;;;;;;28.40;21.17;;;7.80;99.90;;;;;;5050079;28;20113;-67
2022/11/18 00:36:05;;;;;;;27.05;20.98;;;7.80;99.90;;;;;;5067639;28;20043;-67
2022/11/18 00:38:31;;;;;;;25.95;20.10;;;7.70;99.90;;;;;;5067668;28;20055;-67
2022/11/18 00:41:01;;;;;;;25.70;20.35;;;7.70;99.90;;;;;;5049409;28;20048;-67
2022/11/18 00:43:26;;;;;;;29.17;20.95;;;7.70;99.90;;;;;;5053443;28;20080;-68
2022/11/18 00:45:52;;;;;;;26.85;21.17;;;7.60;99.90;;;;;;5072692;28;20048;-67
2022/11/18 00:48:20;;;;;;;25.92;20.02;;;7.70;99.90;;;;;;5071905;28;20095;-67
2022/11/18 00:50:48;;;;;;;29.67;22.10;;;7.70;99.90;;;;;;5067934;28;20079;-68
2022/11/18 00:53:14;;;;;;;27.15;21.05;;;7.70;99.90;;;;;;5065851;28;20048;-67
2022/11/18 00:55:40;;;;;;;28.67;22.02;;;7.70;99.90;;;;;;5066753;28;20051;-68
2022/11/18 00:58:06;;;;;;;28.50;22.17;;;7.70;99.90;;;;;;5066697;28;20041;-67
2022/11/18 01:00:31;;;;;;;30.10;21.92;;;7.70;99.90;;;;;;5065330;28;20075;-67
2022/11/18 01:02:57;;;;;;;28.42;21.90;;;7.70;99.90;;;;;;5067028;28;20056;-67
2022/11/18 01:05:23;;;;;;;29.65;22.55;;;7.70;99.90;;;;;;5049723;28;20092;-68
2022/11/18 01:07:48;;;;;;;31.40;22.15;;;7.70;99.90;;;;;;5066461;28;20041;-67
2022/11/18 01:10:15;;;;;;;29.38;21.33;;;7.70;99.90;;;;;;5066541;28;20045;-67
2022/11/18 01:15:25;;;;;;;28.92;21.35;;;7.70;99.90;;;;;;5066257;28;20078;-67
2022/11/18 01:17:51;;;;;;;30.23;22.42;;;7.70;99.90;;;;;;5065850;28;20517;-67
2022/11/18 01:20:17;;;;;;;31.02;22.60;;;7.60;99.90;;;;;;5066597;28;20048;-67
2022/11/18 01:22:42;;;;;;;31.00;22.30;;;7.60;99.90;;;;;;5066250;28;20055;-67
2022/11/18 01:25:08;;;;;;;32.45;22.10;;;7.80;99.90;;;;;;5064854;28;20041;-67
2022/11/18 01:27:34;;;;;;;27.90;21.35;;;7.70;99.90;;;;;;5060240;28;20045;-67
2022/11/18 01:29:59;;;;;;;31.20;22.20;;;7.70;99.90;;;;;;5065162;28;20084;-67
2022/11/18 01:32:26;;;;;;;29.13;22.20;;;7.60;99.90;;;;;;5064703;28;20044;-67
2022/11/18 01:34:52;;;;;;;29.02;22.25;;;7.60;99.90;;;;;;5064710;28;20134;-68
2022/11/18 01:37:18;;;;;;;30.13;20.92;;;7.60;99.90;;;;;;5066572;28;20081;-67
2022/11/18 01:39:43;;;;;;;26.80;20.10;;;7.70;99.90;;;;;;5066563;28;20041;-67
2022/11/18 01:42:14;;;;;;;26.48;20.05;;;7.60;99.90;;;;;;5053091;28;20041;-67
2022/11/18 01:45:03;;;;;;;26.00;19.75;;;7.70;99.90;;;;;;5053737;28;20048;-67
2022/11/18 01:47:52;;;;;;;25.98;19.45;;;7.70;99.90;;;;;;5073941;28;20057;-67
2022/11/18 01:50:20;;;;;;;26.70;20.08;;;7.70;99.90;;;;;;5065205;28;20041;-67
2022/11/18 01:52:46;;;;;;;25.33;19.30;;;7.70;99.90;;;;;;5066834;28;20054;-67
2022/11/18 01:55:18;;;;;;;29.75;21.77;;;7.70;99.90;;;;;;5063645;28;20105;-67
2022/11/18 01:57:48;;;;;;;28.77;20.30;;;7.70;99.90;;;;;;5065277;28;20053;-68
2022/11/18 02:00:14;;;;;;;;;;;7.70;99.90;;;;;;5066252;28;20048;-67
2022/11/18 02:02:41;;;;;;;28.13;19.83;;;7.60;99.90;;;;;;5051344;28;19921;-68
2022/11/18 02:05:09;;;;;;;30.08;20.75;;;7.70;99.90;;;;;;5065084;28;20489;-67
2022/11/18 02:07:41;;;;;;;33.22;20.25;;;7.60;99.90;;;;;;5066085;28;20033;-67
2022/11/18 02:10:08;;;;;;;31.42;20.85;;;7.70;99.90;;;;;;5051644;28;20049;-67
2022/11/18 02:12:36;;;;;;;29.73;19.92;;;7.60;99.90;;;;;;5064693;28;20045;-67
2022/11/18 02:15:02;;;;;;;27.48;20.05;;;7.60;99.90;;;;;;5064925;28;20084;-67
2022/11/18 02:17:40;;;;;;;28.38;20.27;;;7.60;99.90;;;;;;5065162;28;20045;-67
2022/11/18 02:20:18;;;;;;;29.63;20.90;;;7.60;99.90;;;;;;5065271;28;20044;-67
2022/11/18 02:23:05;;;;;;;31.63;20.70;;;7.60;99.90;;;;;;5065239;28;20041;-67
2022/11/18 02:25:59;;;;;;;27.33;19.48;;;7.60;99.90;;;;;;5064703;28;20108;-67
2022/11/18 02:28:37;;;;;;;26.42;20.60;;;7.70;99.90;;;;;;5055382;28;20041;-67
2022/11/18 02:31:14;;;;;;;31.83;21.80;;;7.60;99.90;;;;;;5065829;28;20041;-67
2022/11/18 02:33:53;;;;;;;30.17;21.05;;;7.60;99.90;;;;;;5064006;28;20064;-67
2022/11/18 02:36:29;;;;;;;30.30;20.23;;;7.60;99.90;;;;;;5064398;28;20051;-67
2022/11/18 02:39:02;;;;;;;29.30;21.42;;;7.60;99.90;;;;;;5063611;28;20515;-67
2022/11/18 02:41:31;;;;;;;29.35;21.10;;;7.60;99.90;;;;;;5064232;28;20051;-68
2022/11/18 02:44:09;;;;;;;29.60;20.70;;;7.60;99.90;;;;;;5041200;28;20075;-68
2022/11/18 02:46:38;;;;;;;31.85;21.02;;;7.60;99.90;;;;;;5047135;28;20094;-67
2022/11/18 02:49:12;;;;;;;31.98;22.45;;;7.60;99.90;;;;;;5064316;28;20078;-67
2022/11/18 02:51:40;;;;;;;31.23;21.83;;;7.60;99.90;;;;;;5051541;28;20040;-68
2022/11/18 02:54:07;;;;;;;31.17;21.67;;;7.60;99.90;;;;;;5065070;28;20127;-68
2022/11/18 02:56:35;;;;;;;28.60;21.90;;;7.60;99.90;;;;;;5046303;28;20049;-67
2022/11/18 02:59:01;;;;;;;30.90;22.88;;;7.60;99.90;;;;;;5065273;28;20466;-67
2022/11/18 03:01:34;;;;;;;29.25;21.73;;;7.60;99.90;;;;;;5031110;28;20036;-67
2022/11/18 03:04:01;;;;;;;32.70;22.55;;;7.60;99.90;;;;;;5065348;28;20131;-67
2022/11/18 03:06:39;;;;;;;30.80;22.85;;;7.60;99.90;;;;;;5047427;28;20040;-67
2022/11/18 03:09:13;;;;;;;31.85;21.95;;;7.60;99.90;;;;;;5047395;28;20048;-68
2022/11/18 03:12:08;;;;;;;32.15;23.38;;;7.60;99.90;;;;;;5047382;28;20056;-67
2022/11/18 03:14:52;;;;;;;34.20;23.17;;;7.60;99.90;;;;;;5046620;28;20057;-68
2022/11/18 03:17:43;;;;;;;34.40;23.00;;;7.60;99.90;;;;;;5047318;28;20052;-67
2022/11/18 03:20:26;;;;;;;29.60;23.05;;;7.60;99.90;;;;;;5034670;28;20040;-67
2022/11/18 03:23:21;;;;;;;29.65;21.95;;;7.60;99.90;;;;;;5064236;28;20037;-68
2022/11/18 03:25:53;;;;;;;32.35;21.85;;;7.60;99.90;;;;;;5032055;28;20537;-67
2022/11/18 03:28:28;;;;;;;29.25;21.88;;;7.60;99.90;;;;;;5046599;28;20037;-67
2022/11/18 03:31:02;;;;;;;30.60;21.52;;;7.60;99.90;;;;;;5064643;28;20056;-67
2022/11/18 03:33:34;;;;;;;29.35;22.60;;;7.60;99.90;;;;;;5065258;28;20044;-67
2022/11/18 03:36:04;;;;;;;28.33;20.85;;;7.60;99.90;;;;;;5046382;28;20101;-67
2022/11/18 03:38:35;;;;;;;27.83;20.65;;;7.60;99.90;;;;;;5045984;28;20059;-67
2022/11/18 03:41:04;;;;;;;32.30;22.45;;;7.60;99.90;;;;;;5030706;28;20056;-68
2022/11/18 03:43:35;;;;;;;26.85;19.73;;;7.50;99.90;;;;;;5064861;28;20045;-68
2022/11/18 03:46:09;;;;;;;27.85;20.98;;;7.40;99.90;;;;;;5042987;28;20070;-67
2022/11/18 03:48:40;;;;;;;28.85;20.75;;;7.50;99.90;;;;;;5064143;28;20049;-67
2022/11/18 03:51:09;;;;;;;26.88;19.83;;;7.60;99.90;;;;;;5063983;28;20040;-67
2022/11/18 03:53:46;;;;;;;26.23;19.75;;;7.50;99.90;;;;;;5046876;28;20110;-67
2022/11/18 03:56:20;;;;;;;24.95;18.83;;;7.50;99.90;;;;;;5047106;28;20049;-67
2022/11/18 03:58:52;;;;;;;26.60;19.08;;;7.60;99.90;;;;;;5051728;28;20056;-67
2022/11/18 04:01:24;;;;;;;25.67;18.38;;;7.50;99.90;;;;;;5050527;28;20076;-68
2022/11/18 04:03:50;;;;;;;26.00;18.35;;;7.50;99.90;;;;;;5068263;28;20045;-67
2022/11/18 04:06:24;;;;;;;28.08;18.10;;;7.50;99.90;;;;;;5050710;28;20045;-67
2022/11/18 04:08:54;;;;;;;28.55;19.35;;;7.60;99.90;;;;;;5068677;28;20049;-67
2022/11/18 04:14:15;;;;;;;27.95;19.88;;;7.70;99.90;;;;;;5050387;28;20162;-67
2022/11/18 04:16:42;;;;;;;28.67;20.75;;;7.60;99.90;;;;;;5049843;28;20048;-67
2022/11/18 04:19:08;;;;;;;25.48;18.80;;;7.60;99.90;;;;;;5049595;28;20056;-68
2022/11/18 04:21:34;;;;;;;24.27;18.40;;;7.60;99.90;;;;;;5061485;28;20033;-67
2022/11/18 04:24:00;;;;;;;27.42;18.75;;;7.50;99.90;;;;;;5041989;28;20064;-67
2022/11/18 04:26:25;;;;;;;25.33;19.63;;;7.50;99.90;;;;;;5049370;28;20045;-67
2022/11/18 04:28:51;;;;;;;26.00;18.52;;;7.50;99.90;;;;;;5049967;28;20083;-67
2022/11/18 04:31:17;;;;;;;28.30;20.40;;;7.50;99.90;;;;;;5067251;28;20037;-67
2022/11/18 04:33:42;;;;;;;27.25;19.08;;;7.50;99.90;;;;;;5049662;28;20053;-67
2022/11/18 04:36:08;;;;;;;28.42;20.10;;;7.50;99.90;;;;;;5049736;28;20401;-67
2022/11/18 04:38:34;;;;;;;29.25;19.73;;;7.50;99.90;;;;;;5067166;28;20079;-67
2022/11/18 04:40:59;;;;;;;28.35;20.17;;;7.50;99.90;;;;;;5049254;28;20077;-67
2022/11/18 04:43:25;;;;;;;28.00;19.60;;;7.50;99.90;;;;;;5067131;28;20052;-67
2022/11/18 04:45:51;;;;;;;28.67;20.48;;;7.50;99.90;;;;;;4999348;28;20053;-68
2022/11/18 04:48:18;;;;;;;26.95;18.50;;;7.50;99.90;;;;;;5048907;28;20041;-67
2022/11/18 04:50:44;;;;;;;27.02;19.70;;;7.50;99.90;;;;;;5049322;28;20049;-67
2022/11/18 04:53:09;;;;;;;29.75;19.75;;;7.40;99.90;;;;;;5067740;28;20041;-67
2022/11/18 04:55:36;;;;;;;29.85;21.02;;;7.40;99.90;;;;;;5067765;28;20044;-67
2022/11/18 04:58:01;;;;;;;27.10;19.73;;;7.50;99.90;;;;;;5067441;28;20413;-67
2022/11/18 05:00:27;;;;;;;33.90;20.63;;;7.50;99.90;;;;;;5048412;28;20048;-67
2022/11/18 05:02:53;;;;;;;28.77;20.42;;;7.40;99.90;;;;;;5048866;28;20057;-67
2022/11/18 05:05:18;;;;;;;29.77;20.63;;;7.40;99.90;;;;;;5066686;28;20044;-67
2022/11/18 05:07:44;;;;;;;27.88;19.73;;;7.40;99.90;;;;;;5066611;28;20512;-67
2022/11/18 05:10:10;;;;;;;26.23;18.05;;;7.30;99.90;;;;;;5035679;28;20041;-67
2022/11/18 05:12:48;;;;;;;29.00;19.55;;;7.30;99.90;;;;;;5066608;28;20048;-67
2022/11/18 05:15:15;;;;;;;28.85;19.77;;;7.30;99.90;;;;;;5036290;28;20095;-67
2022/11/18 05:17:41;;;;;;;28.75;20.00;;;7.30;99.90;;;;;;5067325;28;20456;-68
2022/11/18 05:20:07;;;;;;;30.88;21.45;;;7.40;99.90;;;;;;5067039;28;20033;-68
2022/11/18 05:22:33;;;;;;;29.10;19.95;;;7.40;99.90;;;;;;5048988;28;20101;-67
2022/11/18 05:24:58;;;;;;;32.22;19.98;;;7.40;99.90;;;;;;5066837;28;20048;-67
2022/11/18 05:27:24;;;;;;;28.02;19.67;;;7.30;99.90;;;;;;5049242;28;20048;-67
2022/11/18 05:29:50;;;;;;;29.23;20.05;;;7.40;99.90;;;;;;5048408;28;20063;-67
2022/11/18 05:32:16;;;;;;;28.40;20.40;;;7.30;99.90;;;;;;5049241;28;20076;-67
2022/11/18 05:34:42;;;;;;;32.08;20.67;;;7.30;99.90;;;;;;5066852;28;20041;-67
2022/11/18 05:37:08;;;;;;;30.77;20.48;;;7.30;99.90;;;;;;5048740;28;20047;-67
2022/11/18 05:39:34;;;;;;;30.25;20.40;;;7.30;99.90;;;;;;5065994;28;20045;-67
2022/11/18 05:44:44;;;;;;;32.17;20.13;;;7.20;99.90;;;;;;5048543;28;20052;-67
2022/11/18 05:47:10;;;;;;;33.10;21.00;;;7.20;99.90;;;;;;5038366;28;20053;-67
2022/11/18 05:49:36;;;;;;;33.90;21.15;;;7.20;99.90;;;;;;5048008;28;20049;-67
2022/11/18 05:52:02;;;;;;;29.85;20.25;;;7.20;99.90;;;;;;5048122;28;20140;-68
2022/11/18 05:54:28;;;;;;;29.05;20.42;;;7.20;99.90;;;;;;5048193;28;20519;-66
2022/11/18 05:56:54;;;;;;;29.88;19.73;;;7.20;99.90;;;;;;5031339;28;20632;-67
2022/11/18 05:59:20;;;;;;;32.00;20.00;;;7.20;99.90;;;;;;5046186;28;20493;-67
2022/11/18 06:01:52;;;;;;;30.52;20.42;;;7.10;99.90;;;;;;5031788;28;20131;-68
2022/11/18 06:04:33;;;;;;;28.95;20.10;;;7.10;99.90;;;;;;5064431;28;20045;-68
2022/11/18 06:07:14;;;;;;;34.72;21.20;;;7.20;99.90;;;;;;5058593;28;20045;-67
2022/11/18 06:09:43;;;;;;;33.75;19.35;;;7.10;99.90;;;;;;5024113;28;20132;-65
2022/11/18 06:12:17;;;;;;;32.30;19.60;;;7.10;99.90;;;;;;5046715;28;20067;-65
2022/11/18 06:14:51;;;;;;;32.30;20.23;;;7.20;99.90;;;;;;5032107;28;20297;-66
2022/11/18 06:17:22;;;;;;;32.13;21.38;;;7.20;99.90;;;;;;5059145;28;20090;-66
2022/11/18 06:19:48;;;;;;;32.38;21.50;;;7.20;99.90;;;;;;5034189;28;20591;-66
2022/11/18 06:22:14;;;;;;;34.70;19.98;;;7.20;99.90;;;;;;5072836;28;20071;-66
2022/11/18 06:24:42;;;;;;;31.00;19.50;;;7.20;99.90;;;;;;5024331;28;20141;-66
2022/11/18 06:27:07;;;;;;;32.17;20.85;;;7.20;99.90;;;;;;5035521;28;20128;-66
2022/11/18 06:29:33;;;;;;;30.88;19.77;;;7.20;99.90;;;;;;5028539;28;20083;-68
2022/11/18 06:31:59;;;;;;;31.50;19.98;;;7.20;99.90;;;;;;5054105;28;20112;-68
2022/11/18 06:34:24;;;;;;;32.88;19.42;;;7.20;99.90;;;;;;5031474;28;20041;-69
2022/11/18 06:36:50;;;;;;;34.13;20.02;;;7.10;99.90;;;;;;5057068;28;20462;-68
2022/11/18 06:39:16;;;;;;;32.85;19.48;;;7.20;99.90;;;;;;5026563;28;20041;-68
2022/11/18 06:41:41;;;;;;;29.23;18.05;;;7.10;99.90;;;;;;5023310;28;20095;-68
2022/11/18 06:44:09;;;;;;;29.50;18.98;;;7.10;99.90;;;;;;4990595;28;20045;-68
2022/11/18 06:49:19;;;;;;;29.45;18.08;;;7.10;99.90;;;;;;5027575;28;20598;-68
2022/11/18 06:51:45;;;;;;;28.92;19.08;;;7.10;99.90;;;;;;5039225;28;20053;-68
2022/11/18 06:54:11;;;;;;;33.42;18.70;;;7.10;99.90;;;;;;5057944;28;20033;-68
2022/11/18 06:56:37;;;;;;;29.13;19.27;;;7.10;99.90;;;;;;5017864;28;20048;-68
2022/11/18 06:59:03;;;;;;;32.50;19.67;;;7.10;99.90;;;;;;5055324;28;20033;-71
2022/11/18 07:01:31;;;;;;;29.08;18.40;;;7.10;99.90;;;;;;5077421;28;20048;-69
2022/11/18 07:03:58;;;;;;;32.65;19.38;;;7.10;99.90;;;;;;5027785;28;20543;-68
2022/11/18 07:06:26;;;;;;;29.00;17.60;;;7.10;99.90;;;;;;5066997;28;20060;-69
2022/11/18 07:08:53;;;;;;;27.40;18.80;;;7.10;99.90;;;;;;5060040;28;20052;-69
2022/11/18 07:11:21;;;;;;;30.95;17.67;;;7.20;99.90;;;;;;5061865;28;20551;-69
2022/11/18 07:13:47;;;;;;;30.42;18.65;;;7.10;99.90;;;;;;5055641;28;20049;-69
2022/11/18 07:16:24;;;;;;;28.55;17.73;;;7.00;99.90;;;;;;5058087;28;20052;-69
2022/11/18 07:18:51;;;;;;;32.33;18.73;;;7.00;99.90;;;;;;5052048;28;20048;-69
2022/11/18 07:21:21;;;;;;;28.02;16.98;;;7.00;99.90;;;;;;5076571;28;20052;-69
2022/11/18 07:23:47;;;;;;;25.60;15.70;;;7.10;99.90;;;;;;5042671;28;20047;-69
2022/11/18 07:26:14;;;;;;;27.35;17.25;;;7.00;99.90;;;;;;5062276;28;20414;-69
2022/11/18 07:28:39;;;;;;;27.58;16.55;;;7.00;99.90;;;;;;5039529;28;20049;-69
2022/11/18 07:31:10;;;;;;;22.55;15.25;;;7.10;99.90;;;;;;5045697;28;20061;-69
2022/11/18 07:33:37;;;;;;;23.17;15.52;;;7.10;99.90;;;;;;5048346;28;20306;-67
2022/11/18 07:36:05;;;;;;;22.13;14.65;;;7.00;99.90;;;;;;5064067;28;20055;-66
2022/11/18 07:38:31;;;;;;;22.08;14.85;;;7.10;99.90;;;;;;5064277;28;20041;-66
2022/11/18 07:41:04;;;;;;;22.45;13.77;;;7.10;99.90;;;;;;5065430;28;20094;-66
2022/11/18 07:43:31;;;;;;;23.30;14.70;;;7.00;99.90;;;;;;5065389;28;20124;-67
2022/11/18 07:45:57;;;;;;;20.13;11.88;;;7.00;99.90;;;;;;5021061;28;20048;-66
2022/11/18 07:48:22;;;;;;;17.25;12.40;;;7.10;99.90;;;;;;5049175;28;20049;-66
2022/11/18 07:50:48;;;;;;;18.83;12.32;;;7.10;99.90;;;;;;5043299;28;20045;-67
2022/11/18 07:53:13;;;;;;;15.02;11.05;;;7.10;99.90;;;;;;5053923;28;20051;-67
2022/11/18 07:55:39;;;;;;;18.17;12.13;;;7.10;99.90;;;;;;5059887;28;20056;-66
2022/11/18 07:58:05;;;;;;;18.17;12.23;;;7.10;99.90;;;;;;5051000;28;20133;-66
2022/11/18 08:00:30;;;;;;;18.60;12.52;;;7.00;99.90;;;;;;5040149;28;20295;-67
2022/11/18 08:02:56;;;;;;;16.70;11.77;;;7.10;99.90;;;;;;5069474;28;20404;-67
2022/11/18 08:05:22;;;;;;;21.90;12.38;;;7.00;99.90;;;;;;5036983;28;20067;-66
2022/11/18 08:07:47;;;;;;;17.40;11.82;;;7.10;99.90;;;;;;5072494;28;20124;-66
2022/11/18 08:10:13;;;;;;;16.45;11.80;;;7.10;99.90;;;;;;5045745;28;20048;-67
2022/11/18 08:12:39;;;;;;;21.75;14.50;;;7.10;99.90;;;;;;5076222;28;20053;-68
2022/11/18 08:15:05;;;;;;;19.40;13.80;;;7.10;99.90;;;;;;5040934;28;20094;-67
2022/11/18 08:17:31;;;;;;;19.90;13.60;;;7.10;99.90;;;;;;5057147;28;20552;-66
2022/11/18 08:19:57;;;;;;;18.65;13.00;;;7.10;99.90;;;;;;5049946;28;20045;-67
2022/11/18 08:22:23;;;;;;;21.23;14.98;;;7.10;99.90;;;;;;5055953;28;20048;-67
2022/11/18 08:24:48;;;;;;;23.08;16.48;;;7.10;99.90;;;;;;5037267;28;20063;-67
2022/11/18 08:27:14;;;;;;;21.05;16.00;;;7.10;99.90;;;;;;5050851;28;20404;-66
2022/11/18 08:29:40;;;;;;;23.70;15.43;;;7.10;99.90;;;;;;5036152;28;20124;-67
2022/11/18 08:32:05;;;;;;;22.63;15.05;;;7.10;99.90;;;;;;5047459;28;20053;-67
2022/11/18 08:34:31;;;;;;;27.45;17.60;;;7.00;99.90;;;;;;5058771;28;20053;-67
2022/11/18 08:36:57;;;;;;;24.85;16.92;;;7.10;99.90;;;;;;5047393;28;20052;-67
2022/11/18 08:39:22;;;;;;;23.75;16.65;;;7.10;99.90;;;;;;5041041;28;20047;-68
2022/11/18 08:41:48;;;;;;;35.55;21.98;;;7.10;99.90;;;;;;5046413;28;20167;-66
2022/11/18 08:44:17;;;;;;;56.35;30.85;;;7.10;99.90;;;;;;5041530;28;20053;-67
2022/11/18 08:46:46;;;;;;;65.13;31.65;;;7.10;99.90;;;;;;5026122;28;20068;-67
2022/11/18 08:49:12;;;;;;;100.57;46.33;;;7.00;99.90;;;;;;5060801;28;20044;-67
2022/11/18 08:51:37;;;;;;;57.25;30.95;;;7.00;99.90;;;;;;5036736;28;20114;-66
2022/11/18 08:54:03;;;;;;;41.35;28.27;;;7.00;99.90;;;;;;5031522;28;20045;-67
2022/11/18 08:56:29;;;;;;;30.92;19.95;;;7.00;99.90;;;;;;5042317;28;20056;-66
2022/11/18 08:58:55;;;;;;;28.65;20.35;;;7.00;99.90;;;;;;5044490;28;20577;-67
2022/11/18 09:01:21;;;;;;;31.10;23.70;;;7.00;99.90;;;;;;5057105;28;20139;-66
2022/11/18 09:03:48;;;;;;;47.60;36.50;;;6.90;99.90;;;;;;5035804;28;20049;-67
2022/11/18 09:06:17;;;;;;;37.53;29.45;;;7.00;99.90;;;;;;5064291;28;20079;-67
2022/11/18 09:08:43;;;;;;;25.50;18.17;;;7.00;99.90;;;;;;5073997;28;20328;-67
2022/11/18 09:11:27;;;;;;;26.35;17.95;;;7.00;99.90;;;;;;5063478;28;20056;-67
2022/11/18 09:13:57;;;;;;;24.05;17.48;;;7.00;99.90;;;;;;5034620;28;20036;-66
2022/11/18 09:16:28;;;;;;;23.30;14.57;;;7.00;99.90;;;;;;5063506;28;20061;-67
2022/11/18 09:18:55;;;;;;;27.48;17.23;;;7.00;99.90;;;;;;5026791;28;20543;-67
2022/11/18 09:21:21;;;;;;;26.10;16.50;;;7.00;99.90;;;;;;5024140;28;20071;-66
2022/11/18 09:23:47;;;;;;;31.48;20.25;;;7.00;99.90;;;;;;5045407;28;20041;-66
2022/11/18 09:26:15;;;;;;;27.67;18.60;;;7.00;99.90;;;;;;5039703;28;20147;-67
2022/11/18 09:28:41;;;;;;;30.83;20.13;;;6.90;99.90;;;;;;5047316;28;20052;-67
2022/11/18 09:31:12;;;;;;;27.60;17.67;;;7.00;99.90;;;;;;5040621;28;20044;-67
2022/11/18 09:33:39;;;;;;;28.95;18.13;;;7.00;99.90;;;;;;5049358;28;20041;-67
2022/11/18 09:36:20;;;;;;;25.60;18.15;;;7.00;99.90;;;;;;5017881;28;20125;-67
2022/11/18 09:38:46;;;;;;;25.13;17.70;;;6.90;99.90;;;;;;5043979;28;20045;-67
2022/11/18 09:41:33;;;;;;;26.48;17.58;;;7.00;99.90;;;;;;5039676;28;20080;-67
2022/11/18 09:44:04;;;;;;;29.70;19.92;;;7.00;99.90;;;;;;5044922;28;20044;-66
2022/11/18 09:47:02;;;;;;;28.27;18.55;;;7.00;99.90;;;;;;5026097;28;20060;-66
2022/11/18 09:49:36;;;;;;;27.65;17.52;;;6.90;99.90;;;;;;5051519;28;20113;-68
2022/11/18 09:52:14;;;;;;;33.05;21.88;;;6.90;99.90;;;;;;5041725;28;20059;-66
2022/11/18 09:54:40;;;;;;;31.02;20.05;;;6.90;99.90;;;;;;5047247;28;20064;-67
2022/11/18 09:57:18;;;;;;;30.17;19.55;;;7.00;99.90;;;;;;5033653;28;20083;-66
2022/11/18 09:59:44;;;;;;;25.13;17.75;;;7.00;99.90;;;;;;5039232;28;20061;-66
2022/11/18 10:02:29;;;;;;;28.20;19.20;;;7.00;99.90;;;;;;5042786;28;20144;-66
2022/11/18 10:05:01;;;;;;;24.92;18.23;;;7.00;99.90;;;;;;5063673;28;20123;-66
2022/11/18 10:07:41;;;;;;;25.55;17.10;;;7.10;99.90;;;;;;5046445;28;20059;-67
2022/11/18 10:10:17;;;;;;;24.85;16.63;;;7.00;99.90;;;;;;5042087;28;20096;-67
2022/11/18 10:12:51;;;;;;;23.33;15.68;;;7.00;99.90;;;;;;5021230;28;20056;-67
2022/11/18 10:15:36;;;;;;;23.05;15.38;;;7.00;99.90;;;;;;5029399;28;20100;-67
2022/11/18 10:18:07;;;;;;;24.60;16.88;;;7.00;99.90;;;;;;5052217;28;20045;-66
2022/11/18 10:20:54;;;;;;;25.23;15.50;;;7.00;99.90;;;;;;5034733;28;20553;-67
2022/11/18 10:23:39;;;;;;;25.48;16.83;;;7.10;99.90;;;;;;5021365;28;20068;-67
2022/11/18 10:26:05;;;;;;;22.75;15.73;;;7.10;99.90;;;;;;5030833;28;20510;-67
2022/11/18 10:28:31;;;;;;;22.10;15.20;;;7.00;99.90;;;;;;5048867;28;20555;-67
2022/11/18 10:31:09;;;;;;;21.55;14.65;;;7.10;99.90;;;;;;5034785;28;20507;-67
2022/11/18 10:33:36;;;;;;;22.02;15.40;;;7.00;99.90;;;;;;5049261;28;20061;-67
2022/11/18 10:36:26;;;;;;;24.08;15.25;;;7.00;99.90;;;;;;5040161;28;20088;-67
2022/11/18 10:39:11;;;;;;;24.15;15.45;;;7.10;99.90;;;;;;5062858;28;20120;-67
2022/11/18 10:41:46;;;;;;;25.05;15.23;;;7.00;99.90;;;;;;5042523;28;20116;-67
2022/11/18 10:44:44;;;;;;;24.02;15.50;;;7.00;99.90;;;;;;5045265;28;20084;-67
2022/11/18 10:47:28;;;;;;;24.15;14.82;;;7.10;99.90;;;;;;4930461;28;20171;-67
2022/11/18 10:50:02;;;;;;;33.75;19.45;;;7.00;99.90;;;;;;4939499;29;20067;-66
2022/11/18 10:52:28;;;;;;;35.63;21.02;;;7.00;99.90;;;;;;4962755;28;20078;-67
2022/11/18 10:55:13;;;;;;;26.17;15.98;;;7.00;99.90;;;;;;4945423;28;20059;-67
2022/11/18 10:57:44;;;;;;;24.30;14.80;;;7.00;99.90;;;;;;4941723;28;20055;-67
2022/11/18 11:00:36;;;;;;;37.58;20.55;;;7.10;99.90;;;;;;4955379;29;20618;-67
2022/11/18 11:03:28;;;;;;;35.38;20.52;;;7.00;99.90;;;;;;4919872;29;20071;-67
2022/11/18 11:06:24;;;;;;;35.00;19.75;;;6.90;99.90;;;;;;4945783;28;20062;-67
2022/11/18 11:09:00;;;;;;;38.40;20.27;;;6.90;99.90;;;;;;4960089;28;20074;-67
2022/11/18 11:11:34;;;;;;;30.08;18.95;;;6.80;99.90;;;;;;4963100;28;20153;-67
2022/11/18 11:14:22;;;;;;;36.40;19.02;;;6.90;99.90;;;;;;4938747;29;20460;-66
2022/11/18 11:17:01;;;;;;;31.30;19.05;;;6.80;99.90;;;;;;4940671;28;20679;-66
2022/11/18 11:19:47;;;;;;;30.58;19.17;;;6.80;99.90;;;;;;4946199;29;20059;-66
2022/11/18 11:22:14;;;;;;;42.70;23.60;;;6.80;99.90;;;;;;4981341;28;20536;-67
2022/11/18 11:24:40;;;;;;;39.15;21.23;;;6.80;99.90;;;;;;5027327;28;20057;-67
2022/11/18 11:27:24;;;;;;;37.15;21.10;;;6.80;99.90;;;;;;5041770;28;20049;-68
2022/11/18 11:30:16;;;;;;;39.83;21.35;;;6.70;99.90;;;;;;5051357;28;20572;-67
2022/11/18 11:32:53;;;;;;;32.55;18.17;;;6.70;99.90;;;;;;5045124;28;20247;-67
2022/11/18 11:35:25;;;;;;;41.35;21.30;;;6.60;99.90;;;;;;5038763;28;20053;-66
2022/11/18 11:38:12;;;;;;;35.90;19.80;;;6.60;99.90;;;;;;4999414;28;20115;-67
2022/11/18 11:40:38;;;;;;;41.72;22.13;;;6.60;99.90;;;;;;5029446;28;20045;-67
2022/11/18 11:43:26;;;;;;;45.25;23.58;;;6.60;99.90;;;;;;5054862;28;20049;-66
2022/11/18 11:46:22;;;;;;;58.10;26.08;;;6.50;99.90;;;;;;4963461;28;20044;-67
2022/11/18 11:49:17;;;;;;;48.33;24.25;;;6.50;99.90;;;;;;5048039;28;20048;-67
2022/11/18 11:52:14;;;;;;;45.65;22.00;;;6.50;99.90;;;;;;5042898;28;20107;-67
2022/11/18 11:55:11;;;;;;;74.15;29.92;;;6.50;99.90;;;;;;5038946;28;20045;-67
2022/11/18 11:57:48;;;;;;;35.33;17.83;;;6.50;99.90;;;;;;5037531;28;20098;-67
2022/11/18 12:00:15;;;;;;;54.70;23.13;;;6.50;99.90;;;;;;5061838;28;20509;-67
2022/11/18 12:02:44;;;;;;;139.15;45.75;;;6.50;99.90;;;;;;5030220;28;20443;-67
2022/11/18 12:05:34;;;;;;;60.40;24.92;;;6.50;99.90;;;;;;5037286;28;20048;-67
2022/11/18 12:08:05;;;;;;;68.43;25.13;;;6.50;99.90;;;;;;5008855;28;20057;-68
2022/11/18 12:10:42;;;;;;;36.33;18.70;;;6.50;99.90;;;;;;5033848;28;20094;-69
2022/11/18 12:13:24;;;;;;;24.77;13.73;;;6.50;99.90;;;;;;5054750;28;20056;-67
2022/11/18 12:15:59;;;;;;;28.73;15.80;;;6.50;99.90;;;;;;5030616;28;20061;-67
2022/11/18 12:18:39;;;;;;;22.15;13.70;;;6.40;99.90;;;;;;5050746;28;20052;-68
2022/11/18 12:21:05;;;;;;;23.30;15.02;;;6.40;99.90;;;;;;5017341;28;20678;-68
2022/11/18 12:23:32;;;;;;;24.80;13.65;;;6.40;99.90;;;;;;5036257;28;20053;-67
2022/11/18 12:26:09;;;;;;;23.70;13.98;;;6.40;99.90;;;;;;5034251;28;20056;-69
2022/11/18 12:28:42;;;;;;;23.23;14.23;;;6.40;99.90;;;;;;5070107;28;20049;-71
2022/11/18 12:31:17;;;;;;;23.25;14.30;;;6.40;99.90;;;;;;5035329;28;20049;-68
2022/11/18 12:33:46;;;;;;;29.60;17.40;;;6.40;99.90;;;;;;5051699;28;20369;-73
2022/11/18 12:36:32;;;;;;;23.10;14.27;;;6.40;99.90;;;;;;5024569;28;20071;-71
2022/11/18 12:39:18;;;;;;;32.72;20.13;;;6.40;99.90;;;;;;5029690;28;20050;-72
2022/11/18 12:44:29;;;;;;;31.23;19.52;;;6.40;99.90;;;;;;5045940;28;20147;-71
2022/11/18 12:46:58;;;;;;;30.85;18.55;;;6.40;99.90;;;;;;5011379;28;20048;-71
2022/11/18 12:49:24;;;;;;;26.05;16.48;;;6.40;99.90;;;;;;5064114;28;20071;-71
2022/11/18 12:51:51;;;;;;;29.00;18.27;;;6.40;99.90;;;;;;5039185;28;20052;-71
2022/11/18 12:54:34;;;;;;;32.40;20.45;;;6.40;99.90;;;;;;5050478;28;20084;-71
2022/11/18 12:57:19;;;;;;;29.98;19.13;;;6.30;99.90;;;;;;5060914;28;20049;-71
2022/11/18 12:59:45;;;;;;;27.52;17.40;;;6.40;99.90;;;;;;5042954;28;20087;-72
2022/11/18 13:02:10;;;;;;;28.65;17.70;;;6.40;99.90;;;;;;5045392;28;20110;-72
2022/11/18 13:04:37;;;;;;;32.60;19.63;;;6.30;99.90;;;;;;5047127;28;20495;-71
2022/11/18 13:08:11;;;;;;;33.47;20.50;;;6.30;99.90;;;;;;5017344;28;20052;-71
2022/11/18 13:09:52;;;;;;;37.00;23.83;;;6.20;99.90;;;;;;5039704;28;20060;-71
2022/11/18 13:12:18;;;;;;;23.88;15.43;;;6.20;99.90;;;;;;5043163;28;20154;-71
2022/11/18 13:17:57;;;;;;;22.80;15.18;;;6.30;99.90;;;;;;5030691;28;20467;-71